Landover, Maryland
Current Conditions -  °F | °C
As of 4:35 PM on Saturday 20 Dec 2014 (Local Time) from KCGS Reporting Station
Scattered Clouds Scattered Clouds  
Wind Chill: 37°   Ceiling: Unl
Heat Index: 37°   Visibility: 10mi
Dew Point: 23°   Wind: 0mph
Humidity: 56%   Direction: NA
Pressure: 30.27"   Gusts: NA
Location:  38.9183°N, 76.8721°W
Report Text: KCGS 202135Z AUTO 00000KT 10SM SCT110 03/M05 A3027 RMK AO1
Loading
Personal Weather Stations






























Interactive Weather Map New forecast layout! Learn more

10-Day Weather Forecast

Advertisements
Track Severe Weather on mobile